sensor_id;sensor_type;location;lat;lon;timestamp;P1;durP1;ratioP1;P2;durP2;ratioP2
47599;SDS011;33323;52.124;6.018;2023-02-28T00:01:28;6.20;;;3.28;;
47599;SDS011;33323;52.124;6.018;2023-02-28T00:03:55;8.48;;;4.35;;
47599;SDS011;33323;52.124;6.018;2023-02-28T00:06:23;4.53;;;2.97;;
47599;SDS011;33323;52.124;6.018;2023-02-28T00:08:50;3.55;;;2.85;;
47599;SDS011;33323;52.124;6.018;2023-02-28T00:11:20;10.02;;;4.25;;
47599;SDS011;33323;52.124;6.018;2023-02-28T00:13:47;5.97;;;4.10;;
47599;SDS011;33323;52.124;6.018;2023-02-28T00:16:16;7.68;;;4.32;;
47599;SDS011;33323;52.124;6.018;2023-02-28T00:18:46;5.30;;;3.15;;
47599;SDS011;33323;52.124;6.018;2023-02-28T00:21:14;5.03;;;3.53;;
47599;SDS011;33323;52.124;6.018;2023-02-28T00:23:42;8.55;;;5.28;;
47599;SDS011;33323;52.124;6.018;2023-02-28T00:26:10;8.27;;;6.07;;
47599;SDS011;33323;52.124;6.018;2023-02-28T00:28:38;8.43;;;5.28;;
47599;SDS011;33323;52.124;6.018;2023-02-28T00:31:05;6.47;;;4.80;;
47599;SDS011;33323;52.124;6.018;2023-02-28T00:33:34;5.78;;;4.47;;
47599;SDS011;33323;52.124;6.018;2023-02-28T00:36:05;9.25;;;4.45;;
47599;SDS011;33323;52.124;6.018;2023-02-28T00:38:36;13.20;;;8.82;;
47599;SDS011;33323;52.124;6.018;2023-02-28T00:41:04;15.38;;;11.43;;
47599;SDS011;33323;52.124;6.018;2023-02-28T00:43:32;19.17;;;11.70;;
47599;SDS011;33323;52.124;6.018;2023-02-28T00:46:01;22.27;;;14.23;;
47599;SDS011;33323;52.124;6.018;2023-02-28T00:48:29;12.30;;;8.55;;
47599;SDS011;33323;52.124;6.018;2023-02-28T00:50:56;13.32;;;6.85;;
47599;SDS011;33323;52.124;6.018;2023-02-28T00:53:24;9.65;;;6.85;;
47599;SDS011;33323;52.124;6.018;2023-02-28T00:55:51;9.18;;;6.13;;
47599;SDS011;33323;52.124;6.018;2023-02-28T00:58:18;8.38;;;5.55;;
47599;SDS011;33323;52.124;6.018;2023-02-28T01:00:45;5.22;;;3.95;;
47599;SDS011;33323;52.124;6.018;2023-02-28T01:03:16;3.90;;;3.40;;
47599;SDS011;33323;52.124;6.018;2023-02-28T01:05:44;8.52;;;3.67;;
47599;SDS011;33323;52.124;6.018;2023-02-28T01:08:11;7.85;;;3.50;;
47599;SDS011;33323;52.124;6.018;2023-02-28T01:10:40;4.80;;;3.42;;
47599;SDS011;33323;52.124;6.018;2023-02-28T01:13:07;5.03;;;3.13;;
47599;SDS011;33323;52.124;6.018;2023-02-28T01:15:36;3.97;;;3.30;;
47599;SDS011;33323;52.124;6.018;2023-02-28T01:18:03;4.63;;;2.67;;
47599;SDS011;33323;52.124;6.018;2023-02-28T01:20:30;6.32;;;3.63;;
47599;SDS011;33323;52.124;6.018;2023-02-28T01:22:57;5.10;;;2.75;;
47599;SDS011;33323;52.124;6.018;2023-02-28T01:25:26;4.65;;;2.90;;
47599;SDS011;33323;52.124;6.018;2023-02-28T01:27:53;5.70;;;2.53;;
47599;SDS011;33323;52.124;6.018;2023-02-28T01:30:20;5.70;;;2.95;;
47599;SDS011;33323;52.124;6.018;2023-02-28T01:32:47;4.28;;;2.83;;
47599;SDS011;33323;52.124;6.018;2023-02-28T01:35:14;5.05;;;3.50;;
47599;SDS011;33323;52.124;6.018;2023-02-28T01:37:41;5.53;;;2.55;;
47599;SDS011;33323;52.124;6.018;2023-02-28T01:40:08;4.38;;;2.85;;
47599;SDS011;33323;52.124;6.018;2023-02-28T01:42:36;4.97;;;2.83;;
47599;SDS011;33323;52.124;6.018;2023-02-28T01:45:06;7.40;;;3.53;;
47599;SDS011;33323;52.124;6.018;2023-02-28T01:47:55;6.53;;;3.00;;
47599;SDS011;33323;52.124;6.018;2023-02-28T01:50:32;6.75;;;3.30;;
47599;SDS011;33323;52.124;6.018;2023-02-28T01:53:05;5.00;;;3.25;;
47599;SDS011;33323;52.124;6.018;2023-02-28T01:55:36;3.85;;;2.70;;
47599;SDS011;33323;52.124;6.018;2023-02-28T01:58:05;7.13;;;3.47;;
47599;SDS011;33323;52.124;6.018;2023-02-28T02:00:35;4.20;;;3.50;;
47599;SDS011;33323;52.124;6.018;2023-02-28T02:03:06;5.88;;;3.28;;
47599;SDS011;33323;52.124;6.018;2023-02-28T02:05:38;5.83;;;3.20;;
47599;SDS011;33323;52.124;6.018;2023-02-28T02:08:08;8.13;;;3.10;;
47599;SDS011;33323;52.124;6.018;2023-02-28T02:10:40;4.53;;;3.38;;
47599;SDS011;33323;52.124;6.018;2023-02-28T02:16:28;3.17;;;2.38;;
47599;SDS011;33323;52.124;6.018;2023-02-28T02:25:08;4.28;;;2.85;;
47599;SDS011;33323;52.124;6.018;2023-02-28T02:33:30;4.85;;;2.20;;
47599;SDS011;33323;52.124;6.018;2023-02-28T02:36:33;5.07;;;3.13;;
47599;SDS011;33323;52.124;6.018;2023-02-28T02:39:14;4.47;;;2.88;;
47599;SDS011;33323;52.124;6.018;2023-02-28T02:42:02;7.72;;;3.13;;
47599;SDS011;33323;52.124;6.018;2023-02-28T02:50:14;6.60;;;2.58;;
47599;SDS011;33323;52.124;6.018;2023-02-28T02:52:51;5.22;;;3.10;;
47599;SDS011;33323;52.124;6.018;2023-02-28T02:55:23;7.68;;;3.20;;
47599;SDS011;33323;52.124;6.018;2023-02-28T02:57:56;8.07;;;2.95;;
47599;SDS011;33323;52.124;6.018;2023-02-28T03:00:37;4.88;;;2.60;;
47599;SDS011;33323;52.124;6.018;2023-02-28T03:03:13;4.93;;;3.20;;
47599;SDS011;33323;52.124;6.018;2023-02-28T03:05:45;5.45;;;3.22;;
47599;SDS011;33323;52.124;6.018;2023-02-28T03:08:15;7.32;;;3.42;;
47599;SDS011;33323;52.124;6.018;2023-02-28T03:10:45;3.67;;;2.80;;
47599;SDS011;33323;52.124;6.018;2023-02-28T03:16:09;4.38;;;2.58;;
47599;SDS011;33323;52.124;6.018;2023-02-28T03:36:01;12.48;;;3.92;;
47599;SDS011;33323;52.124;6.018;2023-02-28T03:38:38;4.63;;;2.97;;
47599;SDS011;33323;52.124;6.018;2023-02-28T03:41:53;5.13;;;2.90;;
47599;SDS011;33323;52.124;6.018;2023-02-28T03:44:34;7.00;;;3.47;;
47599;SDS011;33323;52.124;6.018;2023-02-28T03:47:08;5.25;;;2.80;;
47599;SDS011;33323;52.124;6.018;2023-02-28T03:52:27;7.30;;;4.82;;
47599;SDS011;33323;52.124;6.018;2023-02-28T03:55:00;9.10;;;6.45;;
47599;SDS011;33323;52.124;6.018;2023-02-28T03:57:35;11.40;;;7.65;;
47599;SDS011;33323;52.124;6.018;2023-02-28T04:00:16;13.02;;;7.13;;
47599;SDS011;33323;52.124;6.018;2023-02-28T04:02:47;7.95;;;6.65;;
47599;SDS011;33323;52.124;6.018;2023-02-28T04:05:21;8.48;;;5.90;;
47599;SDS011;33323;52.124;6.018;2023-02-28T04:07:49;11.77;;;6.35;;
47599;SDS011;33323;52.124;6.018;2023-02-28T04:10:16;9.90;;;4.90;;
47599;SDS011;33323;52.124;6.018;2023-02-28T04:12:43;7.53;;;5.18;;
47599;SDS011;33323;52.124;6.018;2023-02-28T04:15:10;8.73;;;4.45;;
47599;SDS011;33323;52.124;6.018;2023-02-28T04:17:38;9.23;;;5.10;;
47599;SDS011;33323;52.124;6.018;2023-02-28T04:20:05;8.18;;;4.65;;
47599;SDS011;33323;52.124;6.018;2023-02-28T04:22:36;8.02;;;3.70;;
47599;SDS011;33323;52.124;6.018;2023-02-28T04:25:03;6.15;;;3.63;;
47599;SDS011;33323;52.124;6.018;2023-02-28T04:27:32;6.47;;;3.78;;
47599;SDS011;33323;52.124;6.018;2023-02-28T04:29:59;9.10;;;3.95;;
47599;SDS011;33323;52.124;6.018;2023-02-28T04:32:26;4.70;;;3.00;;
47599;SDS011;33323;52.124;6.018;2023-02-28T04:34:53;4.18;;;2.88;;
47599;SDS011;33323;52.124;6.018;2023-02-28T04:37:20;5.88;;;2.88;;
47599;SDS011;33323;52.124;6.018;2023-02-28T04:39:47;5.57;;;3.13;;
47599;SDS011;33323;52.124;6.018;2023-02-28T04:42:14;4.45;;;2.95;;
47599;SDS011;33323;52.124;6.018;2023-02-28T04:44:41;5.75;;;3.10;;
47599;SDS011;33323;52.124;6.018;2023-02-28T04:47:08;4.50;;;2.80;;
47599;SDS011;33323;52.124;6.018;2023-02-28T04:49:35;5.47;;;2.88;;
47599;SDS011;33323;52.124;6.018;2023-02-28T04:52:02;5.80;;;3.15;;
47599;SDS011;33323;52.124;6.018;2023-02-28T04:54:29;8.25;;;3.35;;
47599;SDS011;33323;52.124;6.018;2023-02-28T04:56:56;7.65;;;3.90;;
47599;SDS011;33323;52.124;6.018;2023-02-28T04:59:23;4.95;;;2.60;;
47599;SDS011;33323;52.124;6.018;2023-02-28T05:01:50;4.20;;;2.85;;
47599;SDS011;33323;52.124;6.018;2023-02-28T05:04:17;8.65;;;3.92;;
47599;SDS011;33323;52.124;6.018;2023-02-28T05:06:44;8.10;;;3.72;;
47599;SDS011;33323;52.124;6.018;2023-02-28T05:09:11;5.28;;;3.85;;
47599;SDS011;33323;52.124;6.018;2023-02-28T05:11:38;8.35;;;3.85;;
47599;SDS011;33323;52.124;6.018;2023-02-28T05:14:08;4.68;;;2.80;;
47599;SDS011;33323;52.124;6.018;2023-02-28T05:16:39;7.78;;;3.05;;
47599;SDS011;33323;52.124;6.018;2023-02-28T05:19:06;4.43;;;3.00;;
47599;SDS011;33323;52.124;6.018;2023-02-28T05:21:34;4.75;;;3.13;;
47599;SDS011;33323;52.124;6.018;2023-02-28T05:24:04;6.35;;;3.20;;
47599;SDS011;33323;52.124;6.018;2023-02-28T05:26:36;6.72;;;3.60;;
47599;SDS011;33323;52.124;6.018;2023-02-28T05:29:05;5.63;;;3.70;;
47599;SDS011;33323;52.124;6.018;2023-02-28T05:31:32;13.88;;;5.05;;
47599;SDS011;33323;52.124;6.018;2023-02-28T05:34:00;16.30;;;7.68;;
47599;SDS011;33323;52.124;6.018;2023-02-28T05:36:27;7.00;;;4.00;;
47599;SDS011;33323;52.124;6.018;2023-02-28T05:38:54;5.88;;;3.30;;
47599;SDS011;33323;52.124;6.018;2023-02-28T05:41:21;4.07;;;3.15;;
47599;SDS011;33323;52.124;6.018;2023-02-28T05:43:48;7.15;;;3.40;;
47599;SDS011;33323;52.124;6.018;2023-02-28T05:46:15;9.48;;;3.30;;
47599;SDS011;33323;52.124;6.018;2023-02-28T05:48:45;6.82;;;3.13;;
47599;SDS011;33323;52.124;6.018;2023-02-28T05:51:14;6.57;;;3.50;;
47599;SDS011;33323;52.124;6.018;2023-02-28T05:53:42;6.40;;;4.18;;
47599;SDS011;33323;52.124;6.018;2023-02-28T05:56:09;6.13;;;3.88;;
47599;SDS011;33323;52.124;6.018;2023-02-28T05:58:36;7.18;;;3.40;;
47599;SDS011;33323;52.124;6.018;2023-02-28T06:01:22;3.83;;;2.92;;
47599;SDS011;33323;52.124;6.018;2023-02-28T06:04:00;5.43;;;3.45;;
47599;SDS011;33323;52.124;6.018;2023-02-28T06:06:29;8.07;;;3.28;;
47599;SDS011;33323;52.124;6.018;2023-02-28T06:08:56;6.07;;;3.55;;
47599;SDS011;33323;52.124;6.018;2023-02-28T06:11:24;6.53;;;2.88;;
47599;SDS011;33323;52.124;6.018;2023-02-28T06:13:54;7.03;;;3.28;;
47599;SDS011;33323;52.124;6.018;2023-02-28T06:16:23;6.70;;;3.22;;
47599;SDS011;33323;52.124;6.018;2023-02-28T06:18:51;4.50;;;3.20;;
47599;SDS011;33323;52.124;6.018;2023-02-28T06:21:18;6.28;;;3.28;;
47599;SDS011;33323;52.124;6.018;2023-02-28T06:23:45;5.07;;;2.90;;
47599;SDS011;33323;52.124;6.018;2023-02-28T06:26:12;4.25;;;3.58;;
47599;SDS011;33323;52.124;6.018;2023-02-28T06:28:40;4.85;;;3.22;;
47599;SDS011;33323;52.124;6.018;2023-02-28T06:31:08;3.78;;;2.95;;
47599;SDS011;33323;52.124;6.018;2023-02-28T06:33:39;7.13;;;3.75;;
47599;SDS011;33323;52.124;6.018;2023-02-28T06:36:07;4.32;;;3.15;;
47599;SDS011;33323;52.124;6.018;2023-02-28T06:38:36;4.53;;;3.40;;
47599;SDS011;33323;52.124;6.018;2023-02-28T06:41:04;5.93;;;3.15;;
47599;SDS011;33323;52.124;6.018;2023-02-28T06:43:33;5.97;;;3.90;;
47599;SDS011;33323;52.124;6.018;2023-02-28T06:46:05;4.97;;;2.80;;
47599;SDS011;33323;52.124;6.018;2023-02-28T06:48:34;5.25;;;3.30;;
47599;SDS011;33323;52.124;6.018;2023-02-28T06:51:02;4.18;;;3.47;;
47599;SDS011;33323;52.124;6.018;2023-02-28T06:53:48;6.15;;;4.25;;
47599;SDS011;33323;52.124;6.018;2023-02-28T06:56:18;7.85;;;3.50;;
47599;SDS011;33323;52.124;6.018;2023-02-28T06:58:47;3.78;;;2.90;;
47599;SDS011;33323;52.124;6.018;2023-02-28T07:01:16;6.20;;;3.45;;
47599;SDS011;33323;52.124;6.018;2023-02-28T07:03:44;6.30;;;3.58;;
47599;SDS011;33323;52.124;6.018;2023-02-28T07:06:12;5.28;;;3.70;;
47599;SDS011;33323;52.124;6.018;2023-02-28T07:08:39;5.22;;;3.67;;
47599;SDS011;33323;52.124;6.018;2023-02-28T07:11:07;3.90;;;2.83;;
47599;SDS011;33323;52.124;6.018;2023-02-28T07:13:34;3.92;;;2.83;;
47599;SDS011;33323;52.124;6.018;2023-02-28T07:16:03;4.57;;;3.88;;
47599;SDS011;33323;52.124;6.018;2023-02-28T07:18:34;5.35;;;3.00;;
47599;SDS011;33323;52.124;6.018;2023-02-28T07:21:02;6.10;;;3.58;;
47599;SDS011;33323;52.124;6.018;2023-02-28T07:23:34;8.15;;;3.83;;
47599;SDS011;33323;52.124;6.018;2023-02-28T07:26:01;4.68;;;4.05;;
47599;SDS011;33323;52.124;6.018;2023-02-28T07:28:28;5.75;;;3.40;;
47599;SDS011;33323;52.124;6.018;2023-02-28T07:30:55;8.05;;;3.55;;
47599;SDS011;33323;52.124;6.018;2023-02-28T07:33:22;7.35;;;3.72;;
47599;SDS011;33323;52.124;6.018;2023-02-28T07:35:50;5.90;;;4.28;;
47599;SDS011;33323;52.124;6.018;2023-02-28T07:38:17;7.70;;;3.15;;
47599;SDS011;33323;52.124;6.018;2023-02-28T07:40:44;4.47;;;3.42;;
47599;SDS011;33323;52.124;6.018;2023-02-28T07:43:11;5.95;;;3.30;;
47599;SDS011;33323;52.124;6.018;2023-02-28T07:45:38;4.88;;;4.10;;
47599;SDS011;33323;52.124;6.018;2023-02-28T07:48:06;7.60;;;4.47;;
47599;SDS011;33323;52.124;6.018;2023-02-28T07:50:33;6.63;;;3.60;;
47599;SDS011;33323;52.124;6.018;2023-02-28T07:53:00;7.38;;;3.88;;
47599;SDS011;33323;52.124;6.018;2023-02-28T07:55:28;6.60;;;3.28;;
47599;SDS011;33323;52.124;6.018;2023-02-28T07:57:56;5.55;;;3.83;;
47599;SDS011;33323;52.124;6.018;2023-02-28T08:00:24;5.47;;;3.50;;
47599;SDS011;33323;52.124;6.018;2023-02-28T08:02:51;4.40;;;2.95;;
47599;SDS011;33323;52.124;6.018;2023-02-28T08:05:18;5.93;;;3.78;;
47599;SDS011;33323;52.124;6.018;2023-02-28T08:07:48;6.45;;;3.97;;
47599;SDS011;33323;52.124;6.018;2023-02-28T08:10:16;6.97;;;3.72;;
47599;SDS011;33323;52.124;6.018;2023-02-28T08:12:43;7.95;;;3.35;;
47599;SDS011;33323;52.124;6.018;2023-02-28T08:15:10;14.18;;;5.30;;
47599;SDS011;33323;52.124;6.018;2023-02-28T08:17:37;6.03;;;3.38;;
47599;SDS011;33323;52.124;6.018;2023-02-28T08:20:04;3.88;;;3.08;;
47599;SDS011;33323;52.124;6.018;2023-02-28T08:22:32;4.32;;;3.25;;
47599;SDS011;33323;52.124;6.018;2023-02-28T08:24:59;8.90;;;3.03;;
47599;SDS011;33323;52.124;6.018;2023-02-28T08:27:26;4.72;;;2.80;;
47599;SDS011;33323;52.124;6.018;2023-02-28T08:29:53;5.28;;;2.42;;
47599;SDS011;33323;52.124;6.018;2023-02-28T08:32:20;5.15;;;2.90;;
47599;SDS011;33323;52.124;6.018;2023-02-28T08:34:56;16.90;;;3.17;;
47599;SDS011;33323;52.124;6.018;2023-02-28T08:37:23;5.43;;;3.30;;
47599;SDS011;33323;52.124;6.018;2023-02-28T08:39:51;10.15;;;2.53;;
47599;SDS011;33323;52.124;6.018;2023-02-28T08:42:21;5.68;;;2.80;;
47599;SDS011;33323;52.124;6.018;2023-02-28T08:44:49;3.47;;;2.38;;
47599;SDS011;33323;52.124;6.018;2023-02-28T08:47:17;3.28;;;2.28;;
47599;SDS011;33323;52.124;6.018;2023-02-28T08:49:44;3.70;;;2.45;;
47599;SDS011;33323;52.124;6.018;2023-02-28T08:52:11;3.80;;;2.47;;
47599;SDS011;33323;52.124;6.018;2023-02-28T08:54:38;4.50;;;3.17;;
47599;SDS011;33323;52.124;6.018;2023-02-28T08:57:05;3.03;;;1.70;;
47599;SDS011;33323;52.124;6.018;2023-02-28T08:59:32;4.95;;;1.80;;
47599;SDS011;33323;52.124;6.018;2023-02-28T09:01:59;2.85;;;1.45;;
47599;SDS011;33323;52.124;6.018;2023-02-28T09:04:26;3.97;;;1.10;;
47599;SDS011;33323;52.124;6.018;2023-02-28T09:06:56;1.00;;;0.85;;
47599;SDS011;33323;52.124;6.018;2023-02-28T09:09:24;2.50;;;0.90;;
47599;SDS011;33323;52.124;6.018;2023-02-28T09:11:50;2.55;;;1.00;;
47599;SDS011;33323;52.124;6.018;2023-02-28T09:14:18;3.25;;;1.73;;
47599;SDS011;33323;52.124;6.018;2023-02-28T09:16:47;1.98;;;1.58;;
47599;SDS011;33323;52.124;6.018;2023-02-28T09:19:14;2.28;;;1.77;;
47599;SDS011;33323;52.124;6.018;2023-02-28T09:21:41;2.08;;;1.10;;
47599;SDS011;33323;52.124;6.018;2023-02-28T09:24:08;1.58;;;1.15;;
47599;SDS011;33323;52.124;6.018;2023-02-28T09:26:38;2.83;;;0.90;;
47599;SDS011;33323;52.124;6.018;2023-02-28T09:29:16;2.28;;;1.33;;
47599;SDS011;33323;52.124;6.018;2023-02-28T09:31:43;2.70;;;1.00;;
47599;SDS011;33323;52.124;6.018;2023-02-28T09:34:11;1.00;;;0.68;;
47599;SDS011;33323;52.124;6.018;2023-02-28T09:36:38;1.13;;;0.70;;
47599;SDS011;33323;52.124;6.018;2023-02-28T09:39:11;2.60;;;0.80;;
47599;SDS011;33323;52.124;6.018;2023-02-28T09:41:42;1.10;;;0.77;;
47599;SDS011;33323;52.124;6.018;2023-02-28T09:47:14;2.35;;;0.60;;
47599;SDS011;33323;52.124;6.018;2023-02-28T09:49:57;1.75;;;0.85;;
47599;SDS011;33323;52.124;6.018;2023-02-28T09:52:33;4.82;;;1.13;;
47599;SDS011;33323;52.124;6.018;2023-02-28T09:55:08;0.90;;;0.77;;
47599;SDS011;33323;52.124;6.018;2023-02-28T09:57:47;0.85;;;0.70;;
47599;SDS011;33323;52.124;6.018;2023-02-28T10:00:18;1.80;;;0.80;;
47599;SDS011;33323;52.124;6.018;2023-02-28T10:08:57;2.60;;;0.60;;
47599;SDS011;33323;52.124;6.018;2023-02-28T10:11:32;0.82;;;0.60;;
47599;SDS011;33323;52.124;6.018;2023-02-28T10:14:03;1.30;;;0.70;;
47599;SDS011;33323;52.124;6.018;2023-02-28T10:22:34;1.90;;;0.75;;
47599;SDS011;33323;52.124;6.018;2023-02-28T10:25:26;1.02;;;0.65;;
47599;SDS011;33323;52.124;6.018;2023-02-28T10:28:00;1.33;;;0.82;;
47599;SDS011;33323;52.124;6.018;2023-02-28T10:30:34;0.98;;;0.55;;
47599;SDS011;33323;52.124;6.018;2023-02-28T10:33:04;2.65;;;1.17;;
47599;SDS011;33323;52.124;6.018;2023-02-28T10:35:31;1.65;;;0.93;;
47599;SDS011;33323;52.124;6.018;2023-02-28T10:38:00;1.25;;;0.80;;
47599;SDS011;33323;52.124;6.018;2023-02-28T10:40:41;1.40;;;0.77;;
47599;SDS011;33323;52.124;6.018;2023-02-28T10:45:55;1.52;;;0.80;;
47599;SDS011;33323;52.124;6.018;2023-02-28T10:51:26;0.90;;;0.63;;
47599;SDS011;33323;52.124;6.018;2023-02-28T10:54:06;1.92;;;0.80;;
47599;SDS011;33323;52.124;6.018;2023-02-28T10:56:43;2.50;;;1.00;;
47599;SDS011;33323;52.124;6.018;2023-02-28T10:59:29;1.85;;;1.00;;
47599;SDS011;33323;52.124;6.018;2023-02-28T11:01:57;1.73;;;0.70;;
47599;SDS011;33323;52.124;6.018;2023-02-28T11:06:56;1.60;;;0.90;;
47599;SDS011;33323;52.124;6.018;2023-02-28T11:09:45;1.10;;;0.90;;
47599;SDS011;33323;52.124;6.018;2023-02-28T11:15:22;3.10;;;1.10;;
47599;SDS011;33323;52.124;6.018;2023-02-28T11:20:39;2.30;;;1.30;;
47599;SDS011;33323;52.124;6.018;2023-02-28T11:23:10;3.58;;;1.08;;
47599;SDS011;33323;52.124;6.018;2023-02-28T11:25:40;1.25;;;0.85;;
47599;SDS011;33323;52.124;6.018;2023-02-28T11:28:33;1.00;;;0.80;;
47599;SDS011;33323;52.124;6.018;2023-02-28T11:33:44;1.55;;;0.90;;
47599;SDS011;33323;52.124;6.018;2023-02-28T11:36:24;0.75;;;0.75;;
47599;SDS011;33323;52.124;6.018;2023-02-28T11:39:01;1.85;;;0.93;;
47599;SDS011;33323;52.124;6.018;2023-02-28T11:47:38;2.03;;;1.00;;
47599;SDS011;33323;52.124;6.018;2023-02-28T12:10:22;1.00;;;0.90;;
47599;SDS011;33323;52.124;6.018;2023-02-28T12:18:52;3.53;;;1.35;;
47599;SDS011;33323;52.124;6.018;2023-02-28T12:27:08;1.60;;;1.05;;
47599;SDS011;33323;52.124;6.018;2023-02-28T12:29:46;1.15;;;0.90;;
47599;SDS011;33323;52.124;6.018;2023-02-28T12:37:56;1.63;;;1.08;;
47599;SDS011;33323;52.124;6.018;2023-02-28T12:40:33;1.63;;;1.17;;
47599;SDS011;33323;52.124;6.018;2023-02-28T12:43:20;2.60;;;0.93;;
47599;SDS011;33323;52.124;6.018;2023-02-28T12:45:59;0.80;;;0.75;;
47599;SDS011;33323;52.124;6.018;2023-02-28T12:59:25;1.45;;;0.82;;
47599;SDS011;33323;52.124;6.018;2023-02-28T13:08:25;1.80;;;1.00;;
47599;SDS011;33323;52.124;6.018;2023-02-28T13:14:00;2.35;;;0.90;;
47599;SDS011;33323;52.124;6.018;2023-02-28T13:19:27;1.95;;;1.10;;
47599;SDS011;33323;52.124;6.018;2023-02-28T13:21:57;1.92;;;0.93;;
47599;SDS011;33323;52.124;6.018;2023-02-28T13:45:26;3.15;;;1.58;;
47599;SDS011;33323;52.124;6.018;2023-02-28T13:48:00;3.05;;;1.27;;
47599;SDS011;33323;52.124;6.018;2023-02-28T13:55:49;1.63;;;1.23;;
47599;SDS011;33323;52.124;6.018;2023-02-28T13:59:23;1.45;;;1.08;;
47599;SDS011;33323;52.124;6.018;2023-02-28T14:05:06;1.20;;;0.82;;
47599;SDS011;33323;52.124;6.018;2023-02-28T14:10:37;1.70;;;1.20;;
47599;SDS011;33323;52.124;6.018;2023-02-28T14:13:57;1.63;;;0.93;;
47599;SDS011;33323;52.124;6.018;2023-02-28T14:16:14;2.38;;;1.50;;
47599;SDS011;33323;52.124;6.018;2023-02-28T14:18:58;1.10;;;0.80;;
47599;SDS011;33323;52.124;6.018;2023-02-28T14:21:32;2.88;;;1.08;;
47599;SDS011;33323;52.124;6.018;2023-02-28T14:24:23;1.20;;;1.05;;
47599;SDS011;33323;52.124;6.018;2023-02-28T14:27:36;2.53;;;0.90;;
47599;SDS011;33323;52.124;6.018;2023-02-28T14:33:58;1.52;;;0.98;;
47599;SDS011;33323;52.124;6.018;2023-02-28T14:36:45;3.17;;;1.05;;
47599;SDS011;33323;52.124;6.018;2023-02-28T14:39:14;3.20;;;1.00;;
47599;SDS011;33323;52.124;6.018;2023-02-28T14:41:44;1.73;;;0.95;;
47599;SDS011;33323;52.124;6.018;2023-02-28T14:44:24;1.85;;;1.20;;
47599;SDS011;33323;52.124;6.018;2023-02-28T14:46:54;3.03;;;1.15;;
47599;SDS011;33323;52.124;6.018;2023-02-28T14:52:02;1.55;;;1.15;;
47599;SDS011;33323;52.124;6.018;2023-02-28T14:54:54;2.80;;;1.40;;
47599;SDS011;33323;52.124;6.018;2023-02-28T14:57:29;1.50;;;1.02;;
47599;SDS011;33323;52.124;6.018;2023-02-28T15:00:22;2.58;;;1.25;;
47599;SDS011;33323;52.124;6.018;2023-02-28T15:02:54;1.92;;;1.10;;
47599;SDS011;33323;52.124;6.018;2023-02-28T15:10:31;1.70;;;1.30;;
47599;SDS011;33323;52.124;6.018;2023-02-28T15:15:40;1.98;;;1.30;;
47599;SDS011;33323;52.124;6.018;2023-02-28T15:23:54;1.85;;;1.25;;
47599;SDS011;33323;52.124;6.018;2023-02-28T15:26:28;1.23;;;1.00;;
47599;SDS011;33323;52.124;6.018;2023-02-28T15:29:00;1.85;;;1.02;;
47599;SDS011;33323;52.124;6.018;2023-02-28T15:31:48;2.10;;;1.15;;
47599;SDS011;33323;52.124;6.018;2023-02-28T15:40:18;1.92;;;1.08;;
47599;SDS011;33323;52.124;6.018;2023-02-28T15:45:27;6.22;;;1.23;;
47599;SDS011;33323;52.124;6.018;2023-02-28T15:48:14;1.27;;;0.75;;
47599;SDS011;33323;52.124;6.018;2023-02-28T15:50:47;2.47;;;1.00;;
47599;SDS011;33323;52.124;6.018;2023-02-28T15:53:24;1.75;;;1.00;;
47599;SDS011;33323;52.124;6.018;2023-02-28T15:55:58;1.50;;;0.88;;
47599;SDS011;33323;52.124;6.018;2023-02-28T15:58:32;2.00;;;1.00;;
47599;SDS011;33323;52.124;6.018;2023-02-28T16:01:46;2.25;;;1.50;;
47599;SDS011;33323;52.124;6.018;2023-02-28T16:04:00;2.72;;;1.10;;
47599;SDS011;33323;52.124;6.018;2023-02-28T16:06:41;1.75;;;0.90;;
47599;SDS011;33323;52.124;6.018;2023-02-28T16:09:14;1.73;;;1.05;;
47599;SDS011;33323;52.124;6.018;2023-02-28T16:11:44;0.95;;;0.77;;
47599;SDS011;33323;52.124;6.018;2023-02-28T16:14:15;3.35;;;1.10;;
47599;SDS011;33323;52.124;6.018;2023-02-28T16:16:48;0.85;;;0.80;;
47599;SDS011;33323;52.124;6.018;2023-02-28T16:19:21;1.73;;;0.93;;
47599;SDS011;33323;52.124;6.018;2023-02-28T16:21:50;1.20;;;0.98;;
47599;SDS011;33323;52.124;6.018;2023-02-28T16:24:17;1.63;;;1.00;;
47599;SDS011;33323;52.124;6.018;2023-02-28T16:26:45;2.70;;;0.90;;
47599;SDS011;33323;52.124;6.018;2023-02-28T16:29:16;4.95;;;1.00;;
47599;SDS011;33323;52.124;6.018;2023-02-28T16:32:04;2.22;;;1.02;;
47599;SDS011;33323;52.124;6.018;2023-02-28T16:34:31;1.92;;;1.23;;
47599;SDS011;33323;52.124;6.018;2023-02-28T16:36:58;2.65;;;0.95;;
47599;SDS011;33323;52.124;6.018;2023-02-28T16:39:26;3.53;;;1.00;;
47599;SDS011;33323;52.124;6.018;2023-02-28T16:41:53;1.42;;;0.90;;
47599;SDS011;33323;52.124;6.018;2023-02-28T16:47:02;3.95;;;1.02;;
47599;SDS011;33323;52.124;6.018;2023-02-28T16:49:30;5.03;;;1.05;;
47599;SDS011;33323;52.124;6.018;2023-02-28T16:51:57;2.97;;;1.13;;
47599;SDS011;33323;52.124;6.018;2023-02-28T16:54:24;2.15;;;1.10;;
47599;SDS011;33323;52.124;6.018;2023-02-28T16:56:51;3.58;;;1.23;;
47599;SDS011;33323;52.124;6.018;2023-02-28T16:59:22;1.92;;;1.25;;
47599;SDS011;33323;52.124;6.018;2023-02-28T17:01:51;3.40;;;1.30;;
47599;SDS011;33323;52.124;6.018;2023-02-28T17:04:18;2.05;;;1.30;;
47599;SDS011;33323;52.124;6.018;2023-02-28T17:06:46;3.38;;;1.58;;
47599;SDS011;33323;52.124;6.018;2023-02-28T17:09:14;1.80;;;1.20;;
47599;SDS011;33323;52.124;6.018;2023-02-28T17:11:55;4.43;;;1.85;;
47599;SDS011;33323;52.124;6.018;2023-02-28T17:14:23;1.75;;;1.20;;
47599;SDS011;33323;52.124;6.018;2023-02-28T17:16:50;3.00;;;1.65;;
47599;SDS011;33323;52.124;6.018;2023-02-28T17:19:17;2.38;;;1.70;;
47599;SDS011;33323;52.124;6.018;2023-02-28T17:21:44;4.60;;;1.48;;
47599;SDS011;33323;52.124;6.018;2023-02-28T17:24:12;4.20;;;1.30;;
47599;SDS011;33323;52.124;6.018;2023-02-28T17:26:55;5.57;;;1.90;;
47599;SDS011;33323;52.124;6.018;2023-02-28T17:29:22;2.65;;;1.40;;
47599;SDS011;33323;52.124;6.018;2023-02-28T17:31:50;4.32;;;1.55;;
47599;SDS011;33323;52.124;6.018;2023-02-28T17:34:18;3.05;;;1.45;;
47599;SDS011;33323;52.124;6.018;2023-02-28T17:36:46;2.17;;;1.67;;
47599;SDS011;33323;52.124;6.018;2023-02-28T17:39:16;2.88;;;1.33;;
47599;SDS011;33323;52.124;6.018;2023-02-28T17:41:50;4.22;;;1.42;;
47599;SDS011;33323;52.124;6.018;2023-02-28T17:44:18;1.67;;;1.30;;
47599;SDS011;33323;52.124;6.018;2023-02-28T17:46:47;1.52;;;1.10;;
47599;SDS011;33323;52.124;6.018;2023-02-28T17:49:16;5.05;;;1.33;;
47599;SDS011;33323;52.124;6.018;2023-02-28T17:51:44;1.88;;;1.30;;
47599;SDS011;33323;52.124;6.018;2023-02-28T17:54:14;7.70;;;3.53;;
47599;SDS011;33323;52.124;6.018;2023-02-28T17:56:44;9.15;;;4.20;;
47599;SDS011;33323;52.124;6.018;2023-02-28T17:59:11;5.75;;;3.00;;
47599;SDS011;33323;52.124;6.018;2023-02-28T18:01:39;6.40;;;2.50;;
47599;SDS011;33323;52.124;6.018;2023-02-28T18:04:06;4.80;;;3.20;;
47599;SDS011;33323;52.124;6.018;2023-02-28T18:06:35;4.18;;;2.40;;
47599;SDS011;33323;52.124;6.018;2023-02-28T18:09:14;3.92;;;2.25;;
47599;SDS011;33323;52.124;6.018;2023-02-28T18:11:44;5.00;;;2.67;;
47599;SDS011;33323;52.124;6.018;2023-02-28T18:14:11;8.60;;;2.78;;
47599;SDS011;33323;52.124;6.018;2023-02-28T18:16:39;10.10;;;3.67;;
47599;SDS011;33323;52.124;6.018;2023-02-28T18:19:06;11.10;;;4.05;;
47599;SDS011;33323;52.124;6.018;2023-02-28T18:21:34;5.50;;;2.50;;
47599;SDS011;33323;52.124;6.018;2023-02-28T18:24:01;3.40;;;1.98;;
47599;SDS011;33323;52.124;6.018;2023-02-28T18:26:29;3.72;;;1.45;;
47599;SDS011;33323;52.124;6.018;2023-02-28T18:28:56;5.97;;;1.83;;
47599;SDS011;33323;52.124;6.018;2023-02-28T18:31:23;4.55;;;1.92;;
47599;SDS011;33323;52.124;6.018;2023-02-28T18:33:51;2.45;;;1.50;;
47599;SDS011;33323;52.124;6.018;2023-02-28T18:36:19;7.53;;;1.98;;
47599;SDS011;33323;52.124;6.018;2023-02-28T18:38:47;3.30;;;1.65;;